Time;durP1;ratioP1;P1;durP2;ratioP2;P2;SDS_P1;SDS_P2;PMS_P1;PMS_P2;Temp;Humidity;BMP_temperature;BMP_pressure;BME280_temperature;BME280_humidity;BME280_pressure;Samples;Min_cycle;Max_cycle;Signal;HPM_P1;HPM_P2
2023/03/01 00:01:07;;;;;;;126.70;51.17;;;;;;;-2.78;60.07;99739.81;5100064;28;20059;-82
2023/03/01 00:03:33;;;;;;;125.72;52.17;;;;;;;-2.77;60.40;99738.81;5080029;28;20437;-81
2023/03/01 00:05:59;;;;;;;126.43;49.90;;;;;;;-2.79;60.31;99741.69;5064317;28;20369;-80
2023/03/01 00:08:25;;;;;;;138.32;52.92;;;;;;;-2.80;60.25;99736.47;5090582;28;20475;-82
2023/03/01 00:11:02;;;;;;;132.20;53.45;;;;;;;-2.81;60.58;99738.34;5090076;28;20043;-80
2023/03/01 00:13:28;;;;;;;140.95;53.10;;;;;;;-2.79;60.34;99739.00;5088207;28;20030;-82
2023/03/01 00:15:53;;;;;;;131.73;53.50;;;;;;;-2.80;60.49;99737.31;5094714;28;20454;-82
2023/03/01 00:18:18;;;;;;;137.70;55.80;;;;;;;-2.80;60.93;99744.53;5094671;28;20031;-82
2023/03/01 00:20:51;;;;;;;141.57;54.40;;;;;;;-2.82;60.56;99738.50;5091873;28;20116;-81
2023/03/01 00:23:16;;;;;;;142.18;52.85;;;;;;;-2.86;60.54;99748.75;5102089;28;20498;-81
2023/03/01 00:25:42;;;;;;;135.95;53.80;;;;;;;-2.90;60.62;99742.06;5112440;28;20023;-81
2023/03/01 00:28:08;;;;;;;147.80;55.05;;;;;;;-2.90;60.56;99739.38;5094717;28;20027;-81
2023/03/01 00:30:33;;;;;;;141.27;55.53;;;;;;;-2.92;60.81;99736.91;5091869;28;20446;-81
2023/03/01 00:32:58;;;;;;;148.63;56.92;;;;;;;-2.92;60.99;99736.03;5094486;28;20028;-82
2023/03/01 00:35:24;;;;;;;148.38;58.00;;;;;;;-2.92;60.94;99728.00;5097839;28;20397;-81
2023/03/01 00:37:57;;;;;;;140.70;55.75;;;;;;;-2.94;60.67;99719.28;5097452;28;20058;-82
2023/03/01 00:40:26;;;;;;;146.75;55.38;;;;;;;-2.96;60.58;99724.84;5106839;28;20050;-81
2023/03/01 00:42:52;;;;;;;151.98;57.70;;;;;;;-2.95;61.20;99728.34;5091793;28;20439;-82
2023/03/01 00:45:17;;;;;;;150.20;54.08;;;;;;;-2.99;60.75;99726.00;5108731;28;20036;-81
2023/03/01 00:47:43;;;;;;;147.77;55.67;;;;;;;-3.00;61.21;99724.34;5093545;28;20019;-81
2023/03/01 00:50:09;;;;;;;137.60;52.25;;;;;;;-3.00;60.97;99723.50;5090028;28;20547;-81
2023/03/01 00:52:35;;;;;;;138.70;52.55;;;;;;;-3.02;61.10;99721.00;5081744;28;20028;-82
2023/03/01 00:55:00;;;;;;;140.77;53.13;;;;;;;-3.04;61.25;99716.81;5085129;28;20032;-82
2023/03/01 00:57:26;;;;;;;143.23;52.67;;;;;;;-3.07;61.15;99720.72;5087487;28;20031;-82
2023/03/01 00:59:54;;;;;;;140.50;53.58;;;;;;;-3.10;61.17;99710.31;5076017;28;20036;-83
2023/03/01 01:02:20;;;;;;;137.63;54.22;;;;;;;-3.10;61.05;99714.84;5092300;28;20089;-83
2023/03/01 01:04:46;;;;;;;135.63;52.95;;;;;;;-3.12;61.38;99712.34;5098984;28;20024;-83
2023/03/01 01:07:11;;;;;;;134.30;55.20;;;;;;;-3.15;61.49;99712.69;5105620;28;20034;-83
2023/03/01 01:09:37;;;;;;;136.25;51.78;;;;;;;-3.14;61.26;99714.38;5096519;28;20036;-83
2023/03/01 01:12:03;;;;;;;129.40;50.42;;;;;;;-3.17;61.28;99712.03;5111775;28;20080;-84
2023/03/01 01:14:29;;;;;;;125.78;50.75;;;;;;;-3.17;61.60;99714.72;5112096;28;20103;-83
2023/03/01 01:16:54;;;;;;;135.07;51.95;;;;;;;-3.18;61.36;99713.03;5109672;28;20452;-84
2023/03/01 01:19:20;;;;;;;132.10;51.63;;;;;;;-3.18;61.45;99724.59;5112071;28;20043;-83
2023/03/01 01:21:47;;;;;;;134.30;51.60;;;;;;;-3.18;61.55;99705.00;5111846;28;20088;-83
2023/03/01 01:24:14;;;;;;;135.65;52.38;;;;;;;-3.19;61.35;99704.16;5111895;28;20030;-83
2023/03/01 01:26:40;;;;;;;137.65;52.80;;;;;;;-3.20;61.41;99704.34;5111544;28;20103;-84
2023/03/01 01:29:06;;;;;;;145.38;53.30;;;;;;;-3.22;61.54;99701.00;5112133;28;20114;-83
2023/03/01 01:31:33;;;;;;;134.85;53.85;;;;;;;-3.26;61.76;99696.97;5105409;28;20058;-83
2023/03/01 01:34:00;;;;;;;134.43;52.05;;;;;;;-3.27;61.78;99698.84;5092215;28;20503;-83
2023/03/01 01:36:26;;;;;;;124.18;51.47;;;;;;;-3.27;61.74;99696.16;5090772;28;20464;-83
2023/03/01 01:38:52;;;;;;;132.95;52.13;;;;;;;-3.29;61.72;99700.88;5091142;28;20120;-83
2023/03/01 01:41:18;;;;;;;134.43;53.28;;;;;;;-3.29;61.39;99692.81;5076608;28;20060;-83
2023/03/01 01:43:47;;;;;;;145.95;55.17;;;;;;;-3.31;61.80;99698.34;5105158;28;20341;-83
2023/03/01 01:46:30;;;;;;;144.35;54.97;;;;;;;-3.33;61.82;99703.03;5091070;28;20040;-83
2023/03/01 01:49:01;;;;;;;148.02;56.40;;;;;;;-3.33;61.66;99691.50;5088218;28;20374;-83
2023/03/01 01:51:38;;;;;;;148.93;56.90;;;;;;;-3.35;62.11;99682.78;5098311;28;20032;-83
2023/03/01 01:54:07;;;;;;;135.35;52.10;;;;;;;-3.36;61.99;99684.59;5092869;28;20028;-83
2023/03/01 01:56:33;;;;;;;148.18;57.72;;;;;;;-3.37;61.96;99679.44;5110647;28;20027;-83
2023/03/01 01:58:58;;;;;;;145.18;55.55;;;;;;;-3.38;62.10;99680.44;5101544;28;20552;-83
2023/03/01 02:01:25;;;;;;;145.65;57.90;;;;;;;-3.36;62.38;99679.25;5092046;28;20118;-83
2023/03/01 02:03:51;;;;;;;151.88;57.15;;;;;;;-3.36;62.12;99675.75;5098617;28;20427;-83
2023/03/01 02:06:29;;;;;;;152.93;59.17;;;;;;;-3.36;61.92;99675.75;5093243;28;20028;-83
2023/03/01 02:08:59;;;;;;;147.35;56.35;;;;;;;-3.38;61.73;99669.72;5083643;28;20092;-84
2023/03/01 02:11:25;;;;;;;141.57;56.90;;;;;;;-3.39;62.52;99674.22;5110657;28;20108;-83
2023/03/01 02:13:52;;;;;;;144.95;55.25;;;;;;;-3.39;62.26;99668.88;5098193;28;20028;-83
2023/03/01 02:16:18;;;;;;;142.07;54.47;;;;;;;-3.38;62.12;99662.47;5089979;28;20036;-84
2023/03/01 02:18:45;;;;;;;137.88;54.55;;;;;;;-3.39;62.44;99663.50;5097739;28;20674;-81
2023/03/01 02:21:46;;;;;;;151.20;55.90;;;;;;;-3.40;62.23;99659.16;5081246;28;20073;-83
2023/03/01 02:24:29;;;;;;;140.13;53.38;;;;;;;-3.37;62.36;99656.13;5088777;28;20550;-83
2023/03/01 02:26:56;;;;;;;139.63;55.13;;;;;;;-3.38;62.12;99662.47;5089439;28;20028;-83
2023/03/01 02:29:22;;;;;;;140.98;55.67;;;;;;;-3.40;62.27;99663.69;5096385;28;20543;-83
2023/03/01 02:31:51;;;;;;;145.63;56.72;;;;;;;-3.40;62.31;99659.16;5104385;28;20051;-83
2023/03/01 02:34:19;;;;;;;141.82;55.45;;;;;;;-3.40;62.30;99651.09;5099377;28;20503;-84
2023/03/01 02:36:45;;;;;;;143.15;54.70;;;;;;;-3.41;62.43;99654.78;5098107;28;20031;-83
2023/03/01 02:39:18;;;;;;;141.38;53.85;;;;;;;-3.44;62.34;99655.13;5091735;28;20035;-81
2023/03/01 02:41:49;;;;;;;141.30;52.50;;;;;;;-3.44;62.29;99655.13;5110008;28;20495;-83
2023/03/01 02:44:15;;;;;;;144.25;54.72;;;;;;;-3.45;62.31;99661.50;5093467;28;20469;-83
2023/03/01 02:46:47;;;;;;;132.93;54.70;;;;;;;-3.45;62.75;99661.50;5091512;28;20031;-83
2023/03/01 02:49:24;;;;;;;131.75;53.30;;;;;;;-3.48;62.97;99662.72;5108572;28;20076;-84
2023/03/01 02:52:02;;;;;;;133.57;54.10;;;;;;;-3.47;62.36;99675.13;5091907;28;20036;-84
2023/03/01 02:54:40;;;;;;;146.57;56.40;;;;;;;-3.50;62.41;99669.28;5110251;28;20042;-84
2023/03/01 02:57:05;;;;;;;144.15;54.88;;;;;;;-3.49;62.21;99662.91;5107457;28;20020;-84
2023/03/01 02:59:38;;;;;;;150.25;58.42;;;;;;;-3.53;62.48;99657.03;5102355;28;20031;-84
2023/03/01 03:02:04;;;;;;;143.60;56.72;;;;;;;-3.53;62.60;99657.03;5109482;28;20030;-83
2023/03/01 03:04:30;;;;;;;141.45;55.05;;;;;;;-3.55;62.52;99653.69;5103490;28;20126;-83
2023/03/01 03:06:55;;;;;;;154.63;60.90;;;;;;;-3.55;62.61;99660.91;5078810;28;20047;-83
2023/03/01 03:09:20;;;;;;;145.85;57.53;;;;;;;-3.59;62.38;99657.72;5097955;28;20157;-84
2023/03/01 03:11:46;;;;;;;152.38;59.03;;;;;;;-3.60;62.53;99653.38;5093257;28;20031;-84
2023/03/01 03:14:13;;;;;;;148.27;56.78;;;;;;;-3.63;62.92;99654.56;5100720;28;20031;-84
2023/03/01 03:16:50;;;;;;;145.85;57.72;;;;;;;-3.64;62.84;99655.56;5095541;28;20039;-79
2023/03/01 03:19:17;;;;;;;136.43;53.80;;;;;;;-3.64;63.00;99660.94;5109538;28;20024;-79
2023/03/01 03:21:42;;;;;;;143.50;56.00;;;;;;;-3.65;62.30;99669.13;5103393;28;20496;-78
2023/03/01 03:24:08;;;;;;;143.07;55.05;;;;;;;-3.67;62.89;99661.28;5089594;28;20028;-80
2023/03/01 03:26:33;;;;;;;147.43;57.38;;;;;;;-3.66;62.65;99657.59;5089231;28;20043;-79
2023/03/01 03:28:59;;;;;;;141.32;56.88;;;;;;;-3.63;63.00;99661.75;5089358;28;20032;-80
2023/03/01 03:31:24;;;;;;;141.70;54.50;;;;;;;-3.64;62.84;99660.09;5105771;28;20047;-80
2023/03/01 03:33:50;;;;;;;139.90;54.78;;;;;;;-3.63;63.10;99665.28;5109735;28;20027;-80
2023/03/01 03:36:17;;;;;;;136.48;55.35;;;;;;;-3.65;63.11;99661.94;5109739;28;20019;-80
2023/03/01 03:38:45;;;;;;;153.02;57.45;;;;;;;-3.64;63.08;99650.22;5100562;28;20055;-78
2023/03/01 03:41:11;;;;;;;141.65;56.45;;;;;;;-3.66;63.10;99654.06;5106198;28;20047;-79
2023/03/01 03:43:38;;;;;;;135.57;55.20;;;;;;;-3.66;62.97;99662.97;5103993;28;20032;-80
2023/03/01 03:46:07;;;;;;;138.25;55.90;;;;;;;-3.68;62.91;99659.63;5092993;28;20024;-80
2023/03/01 03:48:44;;;;;;;139.88;56.47;;;;;;;-3.71;62.82;99654.59;5091819;28;20384;-80
2023/03/01 03:51:15;;;;;;;131.25;52.83;;;;;;;-3.74;62.89;99650.44;5092327;28;20082;-79
2023/03/01 03:53:41;;;;;;;134.40;53.13;;;;;;;-3.72;63.08;99644.06;5105984;28;20655;-80
2023/03/01 03:56:07;;;;;;;125.55;53.35;;;;;;;-3.75;63.04;99637.19;5112714;28;20061;-79
2023/03/01 03:58:32;;;;;;;129.77;55.15;;;;;;;-3.76;63.20;99639.03;5112782;28;20062;-79
2023/03/01 04:00:57;;;;;;;134.32;54.33;;;;;;;-3.77;62.98;99634.69;5112387;28;20035;-80
2023/03/01 04:03:25;;;;;;;139.32;55.83;;;;;;;-3.76;63.22;99631.00;5102253;28;20036;-79
2023/03/01 04:05:51;;;;;;;142.93;55.42;;;;;;;-3.75;63.28;99632.66;5095305;28;20059;-79
2023/03/01 04:08:19;;;;;;;134.20;55.28;;;;;;;-3.72;63.57;99638.69;5113193;28;20032;-79
2023/03/01 04:10:47;;;;;;;138.57;55.70;;;;;;;-3.75;63.52;99635.34;5093367;28;20456;-79
2023/03/01 04:13:16;;;;;;;136.27;55.03;;;;;;;-3.71;63.30;99640.38;5112979;28;20031;-79
2023/03/01 04:15:44;;;;;;;141.00;54.97;;;;;;;-3.70;63.69;99637.50;5099442;28;20032;-80
2023/03/01 04:18:15;;;;;;;137.70;56.65;;;;;;;-3.69;63.46;99643.72;5104921;28;20099;-79
2023/03/01 04:20:41;;;;;;;137.43;54.35;;;;;;;-3.70;63.51;99644.72;5096255;28;20076;-79
2023/03/01 04:23:20;;;;;;;137.95;56.83;;;;;;;-3.71;63.42;99646.56;5113427;28;20084;-80
2023/03/01 04:25:54;;;;;;;141.68;57.33;;;;;;;-3.75;63.17;99646.06;5112772;28;20496;-79
2023/03/01 04:28:27;;;;;;;137.13;56.30;;;;;;;-3.72;63.27;99646.75;5112442;28;20035;-80
2023/03/01 04:30:55;;;;;;;141.32;56.50;;;;;;;-3.74;62.89;99655.78;5112672;28;20027;-80
2023/03/01 04:33:21;;;;;;;138.18;57.30;;;;;;;-3.75;63.35;99645.22;5104508;28;20032;-80
2023/03/01 04:35:49;;;;;;;138.75;55.70;;;;;;;-3.78;63.28;99646.41;5112731;28;20099;-79
2023/03/01 04:38:15;;;;;;;141.88;55.95;;;;;;;-3.78;63.40;99650.94;5110521;28;20404;-80
2023/03/01 04:40:42;;;;;;;150.98;58.08;;;;;;;-3.82;63.18;99644.25;5112080;28;20086;-79
2023/03/01 04:43:09;;;;;;;152.32;58.85;;;;;;;-3.82;63.62;99641.56;5093051;28;20035;-80
2023/03/01 04:45:35;;;;;;;162.25;62.60;;;;;;;-3.84;63.63;99643.56;5112206;28;20028;-80
2023/03/01 04:48:01;;;;;;;171.38;64.10;;;;;;;-3.86;63.56;99642.91;5111902;28;20043;-80
2023/03/01 04:50:27;;;;;;;165.82;61.83;;;;;;;-3.86;63.34;99648.28;5100607;28;20055;-79
2023/03/01 04:52:53;;;;;;;170.95;63.50;;;;;;;-3.86;63.35;99646.44;5083114;28;20464;-79
2023/03/01 04:55:19;;;;;;;174.52;65.40;;;;;;;-3.87;63.39;99643.94;5112562;28;20028;-80
2023/03/01 04:57:45;;;;;;;174.18;66.10;;;;;;;-3.89;63.62;99646.78;5111000;28;20484;-79
2023/03/01 05:00:21;;;;;;;177.35;67.68;;;;;;;-3.91;63.70;99644.28;5093681;28;20629;-80
2023/03/01 05:02:59;;;;;;;166.20;64.70;;;;;;;-3.91;63.64;99646.13;5111904;28;20108;-80
2023/03/01 05:05:28;;;;;;;168.50;66.07;;;;;;;-3.93;63.71;99643.63;5112147;28;20050;-80
2023/03/01 05:07:59;;;;;;;172.40;65.50;;;;;;;-3.92;63.83;99642.63;5078609;28;20439;-80
2023/03/01 05:10:28;;;;;;;175.32;68.65;;;;;;;-3.92;63.76;99634.56;5092550;28;20456;-80
2023/03/01 05:12:55;;;;;;;189.73;70.30;;;;;;;-3.95;63.64;99636.75;5101918;28;20650;-79
2023/03/01 05:15:25;;;;;;;182.85;68.57;;;;;;;-3.97;63.71;99630.72;5073728;28;20496;-79
2023/03/01 05:17:54;;;;;;;;;;;;;;;-3.96;63.73;99635.94;5073728;28;20024;-79
2023/03/01 05:20:22;;;;;;;176.18;65.13;;;;;;;-3.96;64.01;99622.53;5095835;28;20276;-79
2023/03/01 05:22:49;;;;;;;166.75;65.53;;;;;;;-3.96;63.81;99622.53;5111228;28;20042;-80
2023/03/01 05:25:14;;;;;;;172.43;68.28;;;;;;;-3.98;63.60;99621.88;5111327;28;20131;-80
2023/03/01 05:27:39;;;;;;;176.25;67.43;;;;;;;-3.95;63.81;99629.56;5111443;28;20118;-79
2023/03/01 05:30:13;;;;;;;175.68;66.57;;;;;;;-3.96;63.63;99625.22;5111126;28;20030;-79
2023/03/01 05:32:49;;;;;;;183.15;69.53;;;;;;;-3.98;63.87;99624.53;5110813;28;20039;-79
2023/03/01 05:35:17;;;;;;;177.73;67.32;;;;;;;-3.95;63.65;99623.34;5111356;28;20168;-79
2023/03/01 05:37:44;;;;;;;180.95;68.03;;;;;;;-3.96;63.49;99621.69;5099405;28;20032;-79
2023/03/01 05:40:15;;;;;;;175.02;65.50;;;;;;;-3.92;64.08;99623.00;5092891;28;20423;-79
2023/03/01 05:42:46;;;;;;;182.80;68.68;;;;;;;-3.92;64.09;99618.50;5108218;28;20024;-80
2023/03/01 05:45:13;;;;;;;181.77;67.78;;;;;;;-3.90;63.86;99631.72;5111380;28;20055;-79
2023/03/01 05:47:45;;;;;;;183.93;68.50;;;;;;;-3.88;64.06;99629.69;5110764;28;20023;-79
2023/03/01 05:50:23;;;;;;;183.90;66.82;;;;;;;-3.85;64.00;99633.88;5110738;28;20023;-79
2023/03/01 05:52:57;;;;;;;188.88;68.80;;;;;;;-3.83;64.10;99627.34;5110839;28;20050;-79
2023/03/01 05:55:23;;;;;;;197.35;71.40;;;;;;;-3.81;64.29;99621.78;5071165;28;20080;-80
2023/03/01 05:57:49;;;;;;;193.68;68.93;;;;;;;-3.81;63.98;99627.16;5090581;28;20103;-80
2023/03/01 06:00:18;;;;;;;191.32;70.50;;;;;;;-3.81;63.95;99622.63;5090061;28;20020;-79
2023/03/01 06:02:43;;;;;;;206.98;70.45;;;;;;;-3.77;63.71;99615.06;5089007;28;20382;-80
2023/03/01 06:05:13;;;;;;;193.70;67.85;;;;;;;-3.73;63.93;99621.75;5072325;28;20107;-80
2023/03/01 06:07:39;;;;;;;196.73;67.80;;;;;;;-3.69;64.43;99623.09;5106807;28;20161;-79
2023/03/01 06:10:05;;;;;;;177.25;63.42;;;;;;;-3.65;63.81;99629.78;5110587;28;20106;-79
2023/03/01 06:12:32;;;;;;;173.93;66.10;;;;;;;-3.62;63.80;99629.44;5110312;28;20640;-79
2023/03/01 06:14:58;;;;;;;169.48;63.28;;;;;;;-3.59;63.86;99626.41;5109726;28;20510;-79
2023/03/01 06:17:23;;;;;;;154.43;60.35;;;;;;;-3.52;64.29;99639.09;5110078;28;20055;-79
2023/03/01 06:19:49;;;;;;;159.68;61.85;;;;;;;-3.47;64.29;99639.41;5097041;28;20109;-79
2023/03/01 06:22:14;;;;;;;150.43;60.30;;;;;;;-3.42;64.46;99639.69;5089668;28;20036;-78
2023/03/01 06:24:39;;;;;;;157.13;60.40;;;;;;;-3.38;64.45;99646.38;5101039;28;20482;-78
2023/03/01 06:27:05;;;;;;;160.88;60.53;;;;;;;-3.32;64.23;99652.91;5109976;28;20055;-78
2023/03/01 06:29:30;;;;;;;161.38;62.15;;;;;;;-3.26;64.41;99657.56;5110185;28;20023;-78
2023/03/01 06:31:56;;;;;;;165.40;65.80;;;;;;;-3.21;64.32;99644.44;5108076;28;20024;-77
2023/03/01 06:34:21;;;;;;;166.73;66.75;;;;;;;-3.17;64.67;99650.31;5110082;28;20035;-78
2023/03/01 06:36:47;;;;;;;199.50;73.90;;;;;;;-3.12;64.49;99645.25;5109878;28;20028;-77
2023/03/01 06:39:12;;;;;;;189.65;71.72;;;;;;;-3.07;64.17;99650.94;5091655;28;20028;-77
2023/03/01 06:41:37;;;;;;;171.48;67.55;;;;;;;-3.02;64.29;99645.00;5094777;28;20042;-78
2023/03/01 06:44:03;;;;;;;156.32;57.95;;;;;;;-2.93;64.44;99645.78;5089682;28;20077;-78
2023/03/01 06:46:28;;;;;;;166.30;62.42;;;;;;;-2.86;64.96;99644.06;5089203;28;20464;-78
2023/03/01 06:48:54;;;;;;;169.57;62.72;;;;;;;-2.83;64.54;99632.97;5089949;28;20016;-77
2023/03/01 06:51:19;;;;;;;173.00;64.20;;;;;;;-2.75;64.56;99645.47;5070752;28;20551;-80
2023/03/01 06:53:46;;;;;;;180.63;64.88;;;;;;;-2.70;64.74;99641.25;5090029;28;20107;-77
2023/03/01 06:56:11;;;;;;;186.77;67.45;;;;;;;-2.63;64.81;99649.41;5089301;28;20020;-78
2023/03/01 06:58:37;;;;;;;173.15;67.10;;;;;;;-2.57;64.69;99646.00;5089426;28;20392;-80
2023/03/01 07:01:08;;;;;;;187.82;65.47;;;;;;;-2.50;64.57;99639.91;5086513;28;20055;-80
2023/03/01 07:03:34;;;;;;;164.60;63.97;;;;;;;-2.43;64.65;99639.00;5091000;28;20058;-77
2023/03/01 07:05:59;;;;;;;165.20;62.35;;;;;;;-2.34;65.01;99639.75;5089350;28;20468;-78
2023/03/01 07:08:25;;;;;;;150.25;57.63;;;;;;;-2.26;64.94;99631.59;5087291;28;20032;-77
2023/03/01 07:11:01;;;;;;;151.80;59.75;;;;;;;-2.18;64.89;99636.06;5089901;28;20028;-78
2023/03/01 07:13:27;;;;;;;143.63;57.60;;;;;;;-2.10;64.88;99632.47;5092108;28;20035;-79
2023/03/01 07:15:52;;;;;;;149.25;58.33;;;;;;;-2.02;64.99;99640.41;5114665;28;20027;-77
2023/03/01 07:18:17;;;;;;;146.15;60.38;;;;;;;-1.93;64.78;99635.81;5110135;28;20028;-77
2023/03/01 07:20:43;;;;;;;168.95;65.90;;;;;;;-1.85;65.13;99635.72;5093510;28;20024;-78
2023/03/01 07:23:08;;;;;;;191.90;74.38;;;;;;;-1.79;64.80;99636.81;5093447;28;20584;-79
2023/03/01 07:25:34;;;;;;;217.20;79.55;;;;;;;-1.72;64.95;99640.44;5093747;28;20028;-77
2023/03/01 07:27:59;;;;;;;223.65;83.47;;;;;;;-1.65;64.71;99637.81;5093607;28;20073;-77
2023/03/01 07:30:28;;;;;;;229.30;86.93;;;;;;;-1.60;65.15;99639.94;5094114;28;20032;-76
2023/03/01 07:32:57;;;;;;;232.43;84.93;;;;;;;-1.53;64.89;99636.34;5092014;28;20068;-77
2023/03/01 07:35:24;;;;;;;227.18;80.95;;;;;;;-1.46;65.12;99636.41;5095913;28;20023;-79
2023/03/01 07:37:49;;;;;;;210.30;76.82;;;;;;;-1.38;65.09;99630.06;5113955;28;20027;-77
2023/03/01 07:40:15;;;;;;;193.75;73.90;;;;;;;-1.29;65.06;99626.25;5095325;28;20043;-78
2023/03/01 07:42:40;;;;;;;179.82;71.63;;;;;;;-1.22;65.25;99615.53;5113145;28;20031;-79
2023/03/01 07:45:07;;;;;;;165.73;66.95;;;;;;;-1.15;65.28;99626.41;5113821;28;20031;-77
2023/03/01 07:47:33;;;;;;;144.05;59.90;;;;;;;-1.07;64.90;99618.22;5113508;28;20039;-78
2023/03/01 07:49:58;;;;;;;142.32;56.60;;;;;;;-1.01;64.94;99603.94;5113742;28;20383;-78
2023/03/01 07:52:24;;;;;;;133.98;53.97;;;;;;;-0.93;65.04;99603.84;5113665;28;20149;-76
2023/03/01 07:54:49;;;;;;;126.07;53.80;;;;;;;-0.87;64.97;99602.25;5113673;28;20588;-79
2023/03/01 07:57:15;;;;;;;124.88;51.05;;;;;;;-0.78;64.87;99600.25;5113391;28;20085;-81
2023/03/01 07:59:40;;;;;;;130.93;53.97;;;;;;;-0.73;64.82;99595.09;5113569;28;20532;-83
2023/03/01 08:02:05;;;;;;;122.75;51.72;;;;;;;-0.65;64.80;99594.13;5094730;28;20031;-84
2023/03/01 08:04:32;;;;;;;113.18;49.92;;;;;;;-0.59;64.74;99593.34;5113670;28;20027;-88
2023/03/01 08:06:58;;;;;;;126.18;53.40;;;;;;;-0.52;64.48;99596.94;5106077;28;20032;-84
2023/03/01 08:09:24;;;;;;;118.05;52.47;;;;;;;-0.46;64.96;99592.63;5096671;28;20081;-79
2023/03/01 08:11:50;;;;;;;122.80;51.88;;;;;;;-0.39;64.68;99596.19;5094399;28;20030;-81
2023/03/01 08:14:15;;;;;;;121.20;52.97;;;;;;;-0.32;64.87;99583.59;5106363;28;20028;-83
2023/03/01 08:16:41;;;;;;;120.28;49.40;;;;;;;-0.24;64.52;99588.00;5093406;28;20024;-85
2023/03/01 08:19:11;;;;;;;111.85;47.88;;;;;;;-0.18;64.61;99586.38;5093774;28;20044;-86
2023/03/01 08:21:37;;;;;;;109.82;46.75;;;;;;;-0.12;64.56;99582.88;5102847;28;20023;-84
2023/03/01 08:24:05;;;;;;;106.30;45.70;;;;;;;-0.04;64.75;99579.22;5113376;28;20499;-84
2023/03/01 08:26:31;;;;;;;111.13;47.67;;;;;;;0.05;64.92;99587.97;5084464;28;20064;-82
2023/03/01 08:28:56;;;;;;;98.63;41.88;;;;;;;0.12;64.42;99583.44;5092270;28;20035;-81
2023/03/01 08:31:25;;;;;;;90.43;39.13;;;;;;;0.17;64.43;99582.81;5093881;28;20048;-87
2023/03/01 08:33:56;;;;;;;93.28;41.30;;;;;;;0.25;63.97;99588.88;5094912;28;20032;-83
2023/03/01 08:36:27;;;;;;;90.05;38.95;;;;;;;0.31;64.56;99581.88;5086801;28;20119;-84
2023/03/01 08:38:52;;;;;;;87.10;39.35;;;;;;;0.39;64.36;99588.94;5081118;28;20066;-86
2023/03/01 08:41:18;;;;;;;71.13;32.35;;;;;;;0.45;64.06;99588.13;5100211;28;20474;-85
2023/03/01 08:43:44;;;;;;;70.95;32.63;;;;;;;0.54;64.00;99591.47;5071214;28;20028;-82
2023/03/01 08:46:10;;;;;;;72.80;32.78;;;;;;;0.60;64.22;99585.28;5097887;28;20474;-83
2023/03/01 08:48:36;;;;;;;78.97;35.58;;;;;;;0.68;63.94;99578.84;5089896;28;20042;-80
2023/03/01 08:51:16;;;;;;;69.72;32.50;;;;;;;0.74;64.02;99581.59;5094707;28;20032;-79
2023/03/01 08:53:42;;;;;;;63.72;29.20;;;;;;;0.84;63.85;99575.78;5097147;28;20031;-81
2023/03/01 08:56:08;;;;;;;66.10;30.80;;;;;;;0.91;63.91;99575.78;5094107;28;20442;-82
2023/03/01 08:58:34;;;;;;;59.20;29.10;;;;;;;0.98;63.89;99573.13;5088597;28;20059;-83
2023/03/01 09:01:01;;;;;;;62.85;28.85;;;;;;;1.06;63.45;99572.91;5100601;28;20059;-80
2023/03/01 09:03:27;;;;;;;57.65;27.70;;;;;;;1.14;63.71;99571.88;5093246;28;20103;-83
2023/03/01 09:05:53;;;;;;;49.22;23.52;;;;;;;1.19;63.50;99567.50;5089428;28;20027;-83
2023/03/01 09:08:19;;;;;;;52.38;25.70;;;;;;;1.25;63.25;99571.25;5086823;28;20416;-83
2023/03/01 09:10:45;;;;;;;53.97;24.50;;;;;;;1.31;63.29;99565.00;5090393;28;20032;-83
2023/03/01 09:13:11;;;;;;;51.53;23.85;;;;;;;1.38;62.81;99570.44;5094370;28;20039;-80
2023/03/01 09:15:37;;;;;;;46.17;22.58;;;;;;;1.43;62.89;99570.63;5093409;28;20028;-80
2023/03/01 09:18:03;;;;;;;38.38;19.50;;;;;;;1.48;62.56;99561.91;5096417;28;20042;-86
2023/03/01 09:20:31;;;;;;;41.22;18.65;;;;;;;1.55;62.44;99570.00;5089294;28;20020;-90
2023/03/01 09:22:56;;;;;;;43.50;22.65;;;;;;;1.62;62.74;99565.41;5092866;28;20039;-85
2023/03/01 09:25:22;;;;;;;51.47;22.83;;;;;;;1.67;62.55;99567.47;5094531;28;20368;-85
2023/03/01 09:27:51;;;;;;;48.53;23.85;;;;;;;1.72;62.48;99564.97;5092754;28;20032;-86
2023/03/01 09:30:16;;;;;;;44.78;24.58;;;;;;;1.77;61.58;99562.47;5095405;28;20061;-86
2023/03/01 09:32:42;;;;;;;53.28;24.88;;;;;;;1.82;61.46;99561.84;5073348;28;20448;-85
2023/03/01 09:35:08;;;;;;;54.92;28.15;;;;;;;1.86;62.32;99561.22;5088793;28;20020;-84
2023/03/01 09:37:35;;;;;;;55.60;27.13;;;;;;;1.93;61.57;99561.19;5092260;28;20034;-84
2023/03/01 09:40:01;;;;;;;50.17;22.75;;;;;;;2.01;61.44;99563.66;5089885;28;20068;-84
2023/03/01 09:42:30;;;;;;;44.75;22.38;;;;;;;2.07;61.22;99556.56;5085178;28;20040;-81
2023/03/01 09:45:06;;;;;;;53.17;24.45;;;;;;;2.15;61.39;99555.50;5087967;28;20085;-82
2023/03/01 09:47:34;;;;;;;56.83;26.85;;;;;;;2.23;61.25;99566.91;5086158;28;20035;-87
2023/03/01 09:50:09;;;;;;;58.58;29.25;;;;;;;2.30;60.74;99564.19;5085235;28;20032;-78
2023/03/01 09:52:41;;;;;;;65.28;31.90;;;;;;;2.36;61.48;99562.50;5093465;28;20031;-81
2023/03/01 09:55:17;;;;;;;64.65;30.17;;;;;;;2.41;60.78;99561.84;5091427;28;20030;-82
2023/03/01 09:57:53;;;;;;;70.60;33.97;;;;;;;2.47;61.25;99561.00;5100614;28;20023;-90
2023/03/01 10:00:43;;;;;;;73.47;34.45;;;;;;;2.53;60.48;99560.13;5092045;28;20495;-84
2023/03/01 10:03:17;;;;;;;73.82;35.50;;;;;;;2.57;60.68;99561.38;5091903;28;20024;-85
2023/03/01 10:06:04;;;;;;;62.70;30.15;;;;;;;2.61;59.77;99561.75;5091783;28;20019;-85
2023/03/01 10:08:55;;;;;;;39.58;19.83;;;;;;;2.65;59.87;99563.78;5083437;28;20067;-79
2023/03/01 10:11:28;;;;;;;30.60;15.18;;;;;;;2.73;60.31;99559.16;5097107;28;20028;-79
2023/03/01 10:14:04;;;;;;;28.83;15.55;;;;;;;2.76;60.24;99556.03;5096686;28;20016;-82
2023/03/01 10:16:54;;;;;;;32.20;15.85;;;;;;;2.86;60.00;99550.13;5093831;28;20117;-85
2023/03/01 10:19:43;;;;;;;24.42;13.20;;;;;;;2.92;60.07;99547.38;5089667;28;20055;-82
2023/03/01 10:22:17;;;;;;;28.90;14.73;;;;;;;3.03;60.02;99542.31;5054150;28;20514;-80
2023/03/01 10:24:44;;;;;;;25.70;13.68;;;;;;;3.11;59.86;99542.03;5090295;28;20020;-81
2023/03/01 10:27:49;;;;;;;25.25;13.73;;;;;;;3.20;58.62;99546.13;5082019;28;20032;-77
2023/03/01 10:30:22;;;;;;;23.60;12.93;;;;;;;3.24;58.02;99546.53;5085506;28;20094;-78
2023/03/01 10:32:51;;;;;;;28.85;14.63;;;;;;;3.24;58.17;99546.53;5073443;28;20080;-83
2023/03/01 10:35:28;;;;;;;29.42;15.80;;;;;;;3.26;58.28;99541.72;5086073;28;20112;-81
2023/03/01 10:37:57;;;;;;;29.10;15.43;;;;;;;3.33;58.29;99536.25;5069764;28;20028;-76
2023/03/01 10:40:22;;;;;;;33.15;16.67;;;;;;;3.39;58.10;99527.22;5096329;28;20046;-78
2023/03/01 10:42:49;;;;;;;30.35;15.82;;;;;;;3.46;58.04;99528.00;5091817;28;20376;-77
2023/03/01 10:45:26;;;;;;;28.48;15.38;;;;;;;3.48;57.85;99528.56;5085548;28;20026;-80
2023/03/01 10:48:13;;;;;;;25.75;15.10;;;;;;;3.53;57.37;99531.44;5087714;28;20484;-85
2023/03/01 10:50:40;;;;;;;28.85;15.43;;;;;;;3.61;57.39;99524.94;5086586;28;20063;-82
2023/03/01 10:53:18;;;;;;;28.85;15.70;;;;;;;3.68;57.66;99525.66;5084628;28;20109;-80
2023/03/01 10:55:44;;;;;;;28.98;15.38;;;;;;;3.74;57.48;99523.94;5084316;28;20547;-80
2023/03/01 10:58:21;;;;;;;28.45;15.38;;;;;;;3.79;57.25;99521.41;5088373;28;20055;-80
2023/03/01 11:01:06;;;;;;;33.15;17.00;;;;;;;3.85;57.26;99509.66;5094026;28;20469;-81
2023/03/01 11:03:33;;;;;;;40.72;19.65;;;;;;;3.94;56.71;99510.16;5097276;28;20024;-83
2023/03/01 11:06:05;;;;;;;65.10;28.58;;;;;;;4.00;57.14;99511.97;5090216;28;20016;-84
2023/03/01 11:08:35;;;;;;;41.15;19.70;;;;;;;4.07;57.29;99500.22;5103746;28;20028;-85
2023/03/01 11:11:32;;;;;;;40.63;20.88;;;;;;;4.14;56.80;99503.66;5089500;28;20032;-85
2023/03/01 11:13:59;;;;;;;43.45;20.63;;;;;;;4.22;56.91;99507.97;5090451;28;20847;-83
2023/03/01 11:16:27;;;;;;;41.85;21.73;;;;;;;4.29;56.65;99495.09;5088545;28;20103;-87
2023/03/01 11:18:58;;;;;;;46.53;22.83;;;;;;;4.32;56.19;99492.78;5110336;28;20036;-85
2023/03/01 11:21:27;;;;;;;49.08;25.83;;;;;;;4.39;56.37;99491.84;5102958;28;20024;-87